Terminal Aerodrome Forecast
Issued by NWS

Home | Current Version | Previous Version | Text Only | Print | Product List | Glossary On
Versions: 1 2 3 4 5 6 7 8 9 10 11 12 13
242
FTUS41 KLWX 232324
TAFMTN
TAF
KMTN 232324Z 2400/2424 VRB03KT P6SM SCT200
     FM241100 16006KT P6SM BKN050 BKN130
     FM241700 16010G18KT P6SM BKN050 BKN130
     FM242300 16008KT P6SM SCT050 BKN130
      AMD NOT SKED 2402/2412=

USA.gov is the U.S. government's official web portal to all federal, state and local government web resources and services.